sensor_id;sensor_type;location;lat;lon;timestamp;P1;durP1;ratioP1;P2;durP2;ratioP2
39324;SDS011;25037;49.488;9.900;2024-02-21T00:00:05;12.32;;;3.42;;
39324;SDS011;25037;49.488;9.900;2024-02-21T00:02:32;13.15;;;2.85;;
39324;SDS011;25037;49.488;9.900;2024-02-21T00:04:59;14.13;;;2.70;;
39324;SDS011;25037;49.488;9.900;2024-02-21T00:07:26;11.27;;;2.85;;
39324;SDS011;25037;49.488;9.900;2024-02-21T00:09:53;15.60;;;2.83;;
39324;SDS011;25037;49.488;9.900;2024-02-21T00:12:19;8.82;;;2.60;;
39324;SDS011;25037;49.488;9.900;2024-02-21T00:14:46;10.95;;;3.22;;
39324;SDS011;25037;49.488;9.900;2024-02-21T00:17:12;11.07;;;3.53;;
39324;SDS011;25037;49.488;9.900;2024-02-21T00:19:39;10.07;;;2.60;;
39324;SDS011;25037;49.488;9.900;2024-02-21T00:22:06;9.85;;;3.15;;
39324;SDS011;25037;49.488;9.900;2024-02-21T00:24:33;8.32;;;2.50;;
39324;SDS011;25037;49.488;9.900;2024-02-21T00:26:59;10.18;;;2.78;;
39324;SDS011;25037;49.488;9.900;2024-02-21T00:29:26;14.15;;;2.47;;
39324;SDS011;25037;49.488;9.900;2024-02-21T00:31:53;8.52;;;2.83;;
39324;SDS011;25037;49.488;9.900;2024-02-21T00:34:20;10.20;;;2.60;;
39324;SDS011;25037;49.488;9.900;2024-02-21T00:36:47;9.55;;;2.92;;
39324;SDS011;25037;49.488;9.900;2024-02-21T00:39:13;17.67;;;3.05;;
39324;SDS011;25037;49.488;9.900;2024-02-21T00:41:40;12.20;;;2.80;;
39324;SDS011;25037;49.488;9.900;2024-02-21T00:44:07;10.07;;;2.55;;
39324;SDS011;25037;49.488;9.900;2024-02-21T00:46:33;8.65;;;2.53;;
39324;SDS011;25037;49.488;9.900;2024-02-21T00:49:00;10.77;;;3.05;;
39324;SDS011;25037;49.488;9.900;2024-02-21T00:51:27;13.43;;;3.33;;
39324;SDS011;25037;49.488;9.900;2024-02-21T00:53:54;11.75;;;2.92;;
39324;SDS011;25037;49.488;9.900;2024-02-21T00:56:21;8.80;;;3.15;;
39324;SDS011;25037;49.488;9.900;2024-02-21T00:58:47;12.75;;;3.30;;
39324;SDS011;25037;49.488;9.900;2024-02-21T01:01:20;12.00;;;3.00;;
39324;SDS011;25037;49.488;9.900;2024-02-21T01:03:49;12.25;;;2.67;;
39324;SDS011;25037;49.488;9.900;2024-02-21T01:06:16;11.73;;;2.92;;
39324;SDS011;25037;49.488;9.900;2024-02-21T01:08:42;10.52;;;2.40;;
39324;SDS011;25037;49.488;9.900;2024-02-21T01:11:09;13.85;;;3.33;;
39324;SDS011;25037;49.488;9.900;2024-02-21T01:13:36;15.50;;;2.90;;
39324;SDS011;25037;49.488;9.900;2024-02-21T01:16:03;11.50;;;2.50;;
39324;SDS011;25037;49.488;9.900;2024-02-21T01:18:30;9.82;;;2.75;;
39324;SDS011;25037;49.488;9.900;2024-02-21T01:20:56;10.82;;;2.78;;
39324;SDS011;25037;49.488;9.900;2024-02-21T01:23:23;10.45;;;2.92;;
39324;SDS011;25037;49.488;9.900;2024-02-21T01:25:50;14.63;;;2.83;;
39324;SDS011;25037;49.488;9.900;2024-02-21T01:28:18;8.32;;;3.00;;
39324;SDS011;25037;49.488;9.900;2024-02-21T01:30:47;8.23;;;2.55;;
39324;SDS011;25037;49.488;9.900;2024-02-21T01:33:13;12.50;;;2.75;;
39324;SDS011;25037;49.488;9.900;2024-02-21T01:35:40;11.65;;;2.78;;
39324;SDS011;25037;49.488;9.900;2024-02-21T01:38:07;8.43;;;2.60;;
39324;SDS011;25037;49.488;9.900;2024-02-21T01:40:34;11.05;;;3.03;;
39324;SDS011;25037;49.488;9.900;2024-02-21T01:43:00;12.35;;;3.10;;
39324;SDS011;25037;49.488;9.900;2024-02-21T01:45:27;8.25;;;2.47;;
39324;SDS011;25037;49.488;9.900;2024-02-21T01:47:54;10.93;;;3.28;;
39324;SDS011;25037;49.488;9.900;2024-02-21T01:50:21;11.20;;;3.20;;
39324;SDS011;25037;49.488;9.900;2024-02-21T01:52:49;10.45;;;2.95;;
39324;SDS011;25037;49.488;9.900;2024-02-21T01:55:16;17.90;;;2.70;;
39324;SDS011;25037;49.488;9.900;2024-02-21T01:57:43;8.75;;;3.03;;
39324;SDS011;25037;49.488;9.900;2024-02-21T02:00:14;10.07;;;3.05;;
39324;SDS011;25037;49.488;9.900;2024-02-21T02:02:42;11.50;;;2.67;;
39324;SDS011;25037;49.488;9.900;2024-02-21T02:05:09;9.77;;;2.78;;
39324;SDS011;25037;49.488;9.900;2024-02-21T02:07:36;11.65;;;2.50;;
39324;SDS011;25037;49.488;9.900;2024-02-21T02:10:03;11.35;;;2.60;;
39324;SDS011;25037;49.488;9.900;2024-02-21T02:12:30;9.68;;;2.50;;
39324;SDS011;25037;49.488;9.900;2024-02-21T02:15:00;12.30;;;2.60;;
39324;SDS011;25037;49.488;9.900;2024-02-21T02:17:27;11.40;;;2.60;;
39324;SDS011;25037;49.488;9.900;2024-02-21T02:19:54;14.55;;;3.08;;
39324;SDS011;25037;49.488;9.900;2024-02-21T02:22:39;10.65;;;2.80;;
39324;SDS011;25037;49.488;9.900;2024-02-21T02:25:09;16.90;;;3.10;;
39324;SDS011;25037;49.488;9.900;2024-02-21T02:30:12;15.93;;;3.42;;
39324;SDS011;25037;49.488;9.900;2024-02-21T02:32:39;12.88;;;2.78;;
39324;SDS011;25037;49.488;9.900;2024-02-21T02:35:09;10.57;;;2.88;;
39324;SDS011;25037;49.488;9.900;2024-02-21T02:37:35;10.55;;;2.55;;
39324;SDS011;25037;49.488;9.900;2024-02-21T02:40:05;14.40;;;3.30;;
39324;SDS011;25037;49.488;9.900;2024-02-21T02:42:33;13.45;;;3.20;;
39324;SDS011;25037;49.488;9.900;2024-02-21T02:45:00;9.48;;;3.03;;
39324;SDS011;25037;49.488;9.900;2024-02-21T02:47:26;9.57;;;2.50;;
39324;SDS011;25037;49.488;9.900;2024-02-21T02:49:53;11.55;;;2.75;;
39324;SDS011;25037;49.488;9.900;2024-02-21T02:52:20;9.43;;;3.00;;
39324;SDS011;25037;49.488;9.900;2024-02-21T02:54:46;7.30;;;2.72;;
39324;SDS011;25037;49.488;9.900;2024-02-21T02:57:17;10.07;;;2.50;;
39324;SDS011;25037;49.488;9.900;2024-02-21T02:59:50;9.60;;;2.50;;
39324;SDS011;25037;49.488;9.900;2024-02-21T03:02:17;9.82;;;2.28;;
39324;SDS011;25037;49.488;9.900;2024-02-21T03:04:44;10.90;;;2.70;;
39324;SDS011;25037;49.488;9.900;2024-02-21T03:07:11;5.78;;;2.63;;
39324;SDS011;25037;49.488;9.900;2024-02-21T03:09:38;11.35;;;3.03;;
39324;SDS011;25037;49.488;9.900;2024-02-21T03:12:05;8.50;;;2.55;;
39324;SDS011;25037;49.488;9.900;2024-02-21T03:14:32;6.65;;;2.58;;
39324;SDS011;25037;49.488;9.900;2024-02-21T03:16:59;12.82;;;3.22;;
39324;SDS011;25037;49.488;9.900;2024-02-21T03:19:26;11.25;;;3.03;;
39324;SDS011;25037;49.488;9.900;2024-02-21T03:24:20;9.20;;;2.50;;
39324;SDS011;25037;49.488;9.900;2024-02-21T03:26:47;9.63;;;2.60;;
39324;SDS011;25037;49.488;9.900;2024-02-21T03:29:15;11.95;;;2.63;;
39324;SDS011;25037;49.488;9.900;2024-02-21T03:31:42;11.80;;;3.38;;
39324;SDS011;25037;49.488;9.900;2024-02-21T03:36:40;8.38;;;2.20;;
39324;SDS011;25037;49.488;9.900;2024-02-21T03:39:06;8.57;;;2.60;;
39324;SDS011;25037;49.488;9.900;2024-02-21T03:41:35;12.40;;;2.92;;
39324;SDS011;25037;49.488;9.900;2024-02-21T03:44:01;8.68;;;2.30;;
39324;SDS011;25037;49.488;9.900;2024-02-21T03:46:28;11.48;;;2.60;;
39324;SDS011;25037;49.488;9.900;2024-02-21T03:48:55;14.00;;;3.05;;
39324;SDS011;25037;49.488;9.900;2024-02-21T03:51:21;11.07;;;2.72;;
39324;SDS011;25037;49.488;9.900;2024-02-21T03:53:48;9.10;;;2.90;;
39324;SDS011;25037;49.488;9.900;2024-02-21T03:56:15;8.70;;;2.40;;
39324;SDS011;25037;49.488;9.900;2024-02-21T03:58:41;12.50;;;3.55;;
39324;SDS011;25037;49.488;9.900;2024-02-21T04:01:08;10.57;;;2.78;;
39324;SDS011;25037;49.488;9.900;2024-02-21T04:03:35;10.93;;;3.35;;
39324;SDS011;25037;49.488;9.900;2024-02-21T04:06:02;8.88;;;2.65;;
39324;SDS011;25037;49.488;9.900;2024-02-21T04:08:29;11.40;;;2.63;;
39324;SDS011;25037;49.488;9.900;2024-02-21T04:10:55;12.13;;;2.67;;
39324;SDS011;25037;49.488;9.900;2024-02-21T04:13:22;8.90;;;2.60;;
39324;SDS011;25037;49.488;9.900;2024-02-21T04:15:49;8.70;;;2.78;;
39324;SDS011;25037;49.488;9.900;2024-02-21T04:18:15;7.45;;;2.85;;
39324;SDS011;25037;49.488;9.900;2024-02-21T04:20:42;12.75;;;3.25;;
39324;SDS011;25037;49.488;9.900;2024-02-21T04:23:09;10.48;;;3.35;;
39324;SDS011;25037;49.488;9.900;2024-02-21T04:25:36;8.70;;;2.80;;
39324;SDS011;25037;49.488;9.900;2024-02-21T04:28:03;10.50;;;2.90;;
39324;SDS011;25037;49.488;9.900;2024-02-21T04:30:30;12.75;;;2.72;;
39324;SDS011;25037;49.488;9.900;2024-02-21T04:32:56;13.27;;;2.95;;
39324;SDS011;25037;49.488;9.900;2024-02-21T04:35:23;12.43;;;3.00;;
39324;SDS011;25037;49.488;9.900;2024-02-21T04:37:50;12.63;;;3.08;;
39324;SDS011;25037;49.488;9.900;2024-02-21T04:40:16;11.05;;;2.53;;
39324;SDS011;25037;49.488;9.900;2024-02-21T04:42:43;8.25;;;3.35;;
39324;SDS011;25037;49.488;9.900;2024-02-21T04:45:10;13.52;;;3.08;;
39324;SDS011;25037;49.488;9.900;2024-02-21T04:47:37;7.78;;;2.95;;
39324;SDS011;25037;49.488;9.900;2024-02-21T04:50:03;8.82;;;2.90;;
39324;SDS011;25037;49.488;9.900;2024-02-21T04:54:57;7.68;;;3.13;;
39324;SDS011;25037;49.488;9.900;2024-02-21T04:57:24;11.27;;;3.08;;
39324;SDS011;25037;49.488;9.900;2024-02-21T04:59:51;9.63;;;2.60;;
39324;SDS011;25037;49.488;9.900;2024-02-21T05:02:18;10.32;;;3.15;;
39324;SDS011;25037;49.488;9.900;2024-02-21T05:04:46;12.52;;;2.83;;
39324;SDS011;25037;49.488;9.900;2024-02-21T05:07:13;9.07;;;2.75;;
39324;SDS011;25037;49.488;9.900;2024-02-21T05:09:39;9.18;;;2.83;;
39324;SDS011;25037;49.488;9.900;2024-02-21T05:12:08;9.57;;;2.65;;
39324;SDS011;25037;49.488;9.900;2024-02-21T05:14:34;9.52;;;2.58;;
39324;SDS011;25037;49.488;9.900;2024-02-21T05:17:01;10.00;;;2.60;;
39324;SDS011;25037;49.488;9.900;2024-02-21T05:19:28;15.02;;;3.45;;
39324;SDS011;25037;49.488;9.900;2024-02-21T05:21:55;9.73;;;2.17;;
39324;SDS011;25037;49.488;9.900;2024-02-21T05:24:21;6.85;;;2.00;;
39324;SDS011;25037;49.488;9.900;2024-02-21T05:26:48;6.47;;;2.75;;
39324;SDS011;25037;49.488;9.900;2024-02-21T05:29:14;6.85;;;2.45;;
39324;SDS011;25037;49.488;9.900;2024-02-21T05:34:17;10.23;;;1.98;;
39324;SDS011;25037;49.488;9.900;2024-02-21T05:36:44;8.45;;;2.10;;
39324;SDS011;25037;49.488;9.900;2024-02-21T05:39:12;8.05;;;2.80;;
39324;SDS011;25037;49.488;9.900;2024-02-21T05:41:40;9.82;;;2.85;;
39324;SDS011;25037;49.488;9.900;2024-02-21T05:44:07;9.77;;;2.10;;
39324;SDS011;25037;49.488;9.900;2024-02-21T05:46:34;10.07;;;2.55;;
39324;SDS011;25037;49.488;9.900;2024-02-21T05:49:01;8.95;;;2.83;;
39324;SDS011;25037;49.488;9.900;2024-02-21T05:51:31;8.60;;;1.90;;
39324;SDS011;25037;49.488;9.900;2024-02-21T05:54:01;11.88;;;2.33;;
39324;SDS011;25037;49.488;9.900;2024-02-21T05:56:28;9.93;;;2.20;;
39324;SDS011;25037;49.488;9.900;2024-02-21T05:58:55;13.23;;;3.30;;
39324;SDS011;25037;49.488;9.900;2024-02-21T06:01:22;11.27;;;2.63;;
39324;SDS011;25037;49.488;9.900;2024-02-21T06:03:49;11.80;;;2.97;;
39324;SDS011;25037;49.488;9.900;2024-02-21T06:06:16;8.07;;;2.13;;
39324;SDS011;25037;49.488;9.900;2024-02-21T06:08:43;8.70;;;2.50;;
39324;SDS011;25037;49.488;9.900;2024-02-21T06:11:09;12.55;;;3.03;;
39324;SDS011;25037;49.488;9.900;2024-02-21T06:13:39;8.20;;;2.70;;
39324;SDS011;25037;49.488;9.900;2024-02-21T06:16:06;8.23;;;2.75;;
39324;SDS011;25037;49.488;9.900;2024-02-21T06:18:35;10.63;;;2.90;;
39324;SDS011;25037;49.488;9.900;2024-02-21T06:21:02;8.98;;;2.50;;
39324;SDS011;25037;49.488;9.900;2024-02-21T06:25:56;12.27;;;3.60;;
39324;SDS011;25037;49.488;9.900;2024-02-21T06:28:23;13.07;;;3.45;;
39324;SDS011;25037;49.488;9.900;2024-02-21T06:30:50;9.88;;;3.42;;
39324;SDS011;25037;49.488;9.900;2024-02-21T06:33:16;10.27;;;2.33;;
39324;SDS011;25037;49.488;9.900;2024-02-21T06:35:43;10.80;;;2.97;;
39324;SDS011;25037;49.488;9.900;2024-02-21T06:38:13;10.57;;;2.90;;
39324;SDS011;25037;49.488;9.900;2024-02-21T06:40:42;5.78;;;1.73;;
39324;SDS011;25037;49.488;9.900;2024-02-21T06:43:09;8.27;;;2.10;;
39324;SDS011;25037;49.488;9.900;2024-02-21T06:45:35;9.57;;;1.83;;
39324;SDS011;25037;49.488;9.900;2024-02-21T06:48:02;9.45;;;2.25;;
39324;SDS011;25037;49.488;9.900;2024-02-21T06:50:29;6.85;;;1.75;;
39324;SDS011;25037;49.488;9.900;2024-02-21T06:52:56;9.65;;;2.17;;
39324;SDS011;25037;49.488;9.900;2024-02-21T06:55:23;10.60;;;2.22;;
39324;SDS011;25037;49.488;9.900;2024-02-21T06:57:49;8.57;;;2.10;;
39324;SDS011;25037;49.488;9.900;2024-02-21T07:00:16;9.55;;;2.05;;
39324;SDS011;25037;49.488;9.900;2024-02-21T07:05:10;8.90;;;1.80;;
39324;SDS011;25037;49.488;9.900;2024-02-21T07:07:37;5.93;;;1.55;;
39324;SDS011;25037;49.488;9.900;2024-02-21T07:10:04;9.75;;;2.13;;
39324;SDS011;25037;49.488;9.900;2024-02-21T07:14:57;7.93;;;1.80;;
39324;SDS011;25037;49.488;9.900;2024-02-21T07:17:24;9.52;;;2.17;;
39324;SDS011;25037;49.488;9.900;2024-02-21T07:19:51;8.57;;;2.20;;
39324;SDS011;25037;49.488;9.900;2024-02-21T07:22:18;6.45;;;1.63;;
39324;SDS011;25037;49.488;9.900;2024-02-21T07:24:45;8.23;;;1.80;;
39324;SDS011;25037;49.488;9.900;2024-02-21T07:27:13;9.15;;;2.30;;
39324;SDS011;25037;49.488;9.900;2024-02-21T07:29:41;9.13;;;1.95;;
39324;SDS011;25037;49.488;9.900;2024-02-21T07:32:08;9.25;;;1.92;;
39324;SDS011;25037;49.488;9.900;2024-02-21T07:34:35;7.28;;;2.10;;
39324;SDS011;25037;49.488;9.900;2024-02-21T07:37:02;7.55;;;2.22;;
39324;SDS011;25037;49.488;9.900;2024-02-21T07:39:28;6.82;;;1.80;;
39324;SDS011;25037;49.488;9.900;2024-02-21T07:41:55;7.82;;;1.90;;
39324;SDS011;25037;49.488;9.900;2024-02-21T07:44:22;7.85;;;1.75;;
39324;SDS011;25037;49.488;9.900;2024-02-21T07:46:48;7.35;;;1.92;;
39324;SDS011;25037;49.488;9.900;2024-02-21T07:49:15;4.68;;;1.42;;
39324;SDS011;25037;49.488;9.900;2024-02-21T07:51:42;7.07;;;1.80;;
39324;SDS011;25037;49.488;9.900;2024-02-21T07:54:09;7.25;;;1.60;;
39324;SDS011;25037;49.488;9.900;2024-02-21T07:56:40;8.57;;;2.30;;
39324;SDS011;25037;49.488;9.900;2024-02-21T07:59:07;5.07;;;1.83;;
39324;SDS011;25037;49.488;9.900;2024-02-21T08:01:34;10.35;;;1.98;;
39324;SDS011;25037;49.488;9.900;2024-02-21T08:04:01;7.05;;;1.80;;
39324;SDS011;25037;49.488;9.900;2024-02-21T08:06:30;9.73;;;2.05;;
39324;SDS011;25037;49.488;9.900;2024-02-21T08:08:57;6.25;;;1.80;;
39324;SDS011;25037;49.488;9.900;2024-02-21T08:11:24;7.38;;;1.77;;
39324;SDS011;25037;49.488;9.900;2024-02-21T08:13:51;8.23;;;2.15;;
39324;SDS011;25037;49.488;9.900;2024-02-21T08:16:17;10.50;;;1.98;;
39324;SDS011;25037;49.488;9.900;2024-02-21T08:18:44;6.70;;;1.67;;
39324;SDS011;25037;49.488;9.900;2024-02-21T08:23:38;5.85;;;1.65;;
39324;SDS011;25037;49.488;9.900;2024-02-21T08:26:04;8.02;;;1.55;;
39324;SDS011;25037;49.488;9.900;2024-02-21T08:28:31;7.60;;;1.98;;
39324;SDS011;25037;49.488;9.900;2024-02-21T08:30:58;6.75;;;1.60;;
39324;SDS011;25037;49.488;9.900;2024-02-21T08:33:25;7.40;;;1.60;;
39324;SDS011;25037;49.488;9.900;2024-02-21T08:35:52;7.28;;;2.20;;
39324;SDS011;25037;49.488;9.900;2024-02-21T08:38:18;8.88;;;1.70;;
39324;SDS011;25037;49.488;9.900;2024-02-21T08:40:45;5.18;;;1.63;;
39324;SDS011;25037;49.488;9.900;2024-02-21T08:43:12;6.28;;;1.30;;
39324;SDS011;25037;49.488;9.900;2024-02-21T08:45:38;6.07;;;1.65;;
39324;SDS011;25037;49.488;9.900;2024-02-21T08:48:05;7.32;;;1.80;;
39324;SDS011;25037;49.488;9.900;2024-02-21T08:50:32;8.32;;;1.42;;
39324;SDS011;25037;49.488;9.900;2024-02-21T08:55:26;6.80;;;1.55;;
39324;SDS011;25037;49.488;9.900;2024-02-21T08:57:53;9.32;;;1.77;;
39324;SDS011;25037;49.488;9.900;2024-02-21T09:00:19;6.32;;;1.60;;
39324;SDS011;25037;49.488;9.900;2024-02-21T09:02:50;7.15;;;1.75;;
39324;SDS011;25037;49.488;9.900;2024-02-21T09:05:17;6.50;;;1.70;;
39324;SDS011;25037;49.488;9.900;2024-02-21T09:07:45;7.95;;;2.65;;
39324;SDS011;25037;49.488;9.900;2024-02-21T09:10:12;5.93;;;1.90;;
39324;SDS011;25037;49.488;9.900;2024-02-21T09:15:06;6.35;;;1.63;;
39324;SDS011;25037;49.488;9.900;2024-02-21T09:17:33;8.30;;;1.90;;
39324;SDS011;25037;49.488;9.900;2024-02-21T09:22:29;5.18;;;1.52;;
39324;SDS011;25037;49.488;9.900;2024-02-21T09:24:57;8.38;;;1.90;;
39324;SDS011;25037;49.488;9.900;2024-02-21T09:27:24;10.38;;;1.85;;
39324;SDS011;25037;49.488;9.900;2024-02-21T09:29:51;8.10;;;3.15;;
39324;SDS011;25037;49.488;9.900;2024-02-21T09:32:18;7.10;;;2.00;;
39324;SDS011;25037;49.488;9.900;2024-02-21T09:34:45;7.28;;;2.33;;
39324;SDS011;25037;49.488;9.900;2024-02-21T09:37:12;7.05;;;1.52;;
39324;SDS011;25037;49.488;9.900;2024-02-21T09:39:39;6.25;;;1.77;;
39324;SDS011;25037;49.488;9.900;2024-02-21T09:42:06;7.30;;;1.45;;
39324;SDS011;25037;49.488;9.900;2024-02-21T09:44:36;9.02;;;2.47;;
39324;SDS011;25037;49.488;9.900;2024-02-21T09:47:07;10.43;;;1.73;;
39324;SDS011;25037;49.488;9.900;2024-02-21T09:49:43;5.03;;;1.42;;
39324;SDS011;25037;49.488;9.900;2024-02-21T09:52:11;7.28;;;1.42;;
39324;SDS011;25037;49.488;9.900;2024-02-21T09:54:40;7.85;;;2.10;;
39324;SDS011;25037;49.488;9.900;2024-02-21T09:57:10;7.32;;;1.83;;
39324;SDS011;25037;49.488;9.900;2024-02-21T09:59:39;6.97;;;1.63;;
39324;SDS011;25037;49.488;9.900;2024-02-21T10:02:08;7.70;;;1.77;;
39324;SDS011;25037;49.488;9.900;2024-02-21T10:04:35;6.43;;;1.85;;
39324;SDS011;25037;49.488;9.900;2024-02-21T10:07:02;8.23;;;1.67;;
39324;SDS011;25037;49.488;9.900;2024-02-21T10:09:30;7.88;;;1.33;;
39324;SDS011;25037;49.488;9.900;2024-02-21T10:12:10;4.68;;;1.63;;
39324;SDS011;25037;49.488;9.900;2024-02-21T10:14:39;8.43;;;1.98;;
39324;SDS011;25037;49.488;9.900;2024-02-21T10:19:37;7.38;;;1.52;;
39324;SDS011;25037;49.488;9.900;2024-02-21T10:22:09;7.45;;;1.75;;
39324;SDS011;25037;49.488;9.900;2024-02-21T10:24:37;6.20;;;1.70;;
39324;SDS011;25037;49.488;9.900;2024-02-21T10:27:12;6.03;;;1.67;;
39324;SDS011;25037;49.488;9.900;2024-02-21T10:29:40;7.40;;;1.77;;
39324;SDS011;25037;49.488;9.900;2024-02-21T10:32:09;7.30;;;1.55;;
39324;SDS011;25037;49.488;9.900;2024-02-21T10:34:38;6.10;;;1.75;;
39324;SDS011;25037;49.488;9.900;2024-02-21T10:37:07;6.15;;;1.40;;
39324;SDS011;25037;49.488;9.900;2024-02-21T10:39:35;6.60;;;1.83;;
39324;SDS011;25037;49.488;9.900;2024-02-21T10:42:04;4.72;;;1.13;;
39324;SDS011;25037;49.488;9.900;2024-02-21T10:44:32;5.68;;;1.55;;
39324;SDS011;25037;49.488;9.900;2024-02-21T10:47:11;9.25;;;1.40;;
39324;SDS011;25037;49.488;9.900;2024-02-21T10:49:44;7.93;;;1.30;;
39324;SDS011;25037;49.488;9.900;2024-02-21T10:52:18;5.93;;;1.50;;
39324;SDS011;25037;49.488;9.900;2024-02-21T10:55:04;9.05;;;1.63;;
39324;SDS011;25037;49.488;9.900;2024-02-21T10:57:37;7.72;;;1.50;;
39324;SDS011;25037;49.488;9.900;2024-02-21T11:00:04;8.80;;;1.60;;
39324;SDS011;25037;49.488;9.900;2024-02-21T11:02:34;7.18;;;1.48;;
39324;SDS011;25037;49.488;9.900;2024-02-21T11:05:01;6.97;;;1.50;;
39324;SDS011;25037;49.488;9.900;2024-02-21T11:07:29;5.32;;;1.10;;
39324;SDS011;25037;49.488;9.900;2024-02-21T11:09:59;6.28;;;1.75;;
39324;SDS011;25037;49.488;9.900;2024-02-21T11:12:26;9.40;;;1.45;;
39324;SDS011;25037;49.488;9.900;2024-02-21T11:15:03;6.60;;;2.22;;
39324;SDS011;25037;49.488;9.900;2024-02-21T11:17:33;7.90;;;1.35;;
39324;SDS011;25037;49.488;9.900;2024-02-21T11:22:42;5.07;;;1.55;;
39324;SDS011;25037;49.488;9.900;2024-02-21T11:25:10;4.05;;;1.30;;
39324;SDS011;25037;49.488;9.900;2024-02-21T11:27:45;8.25;;;1.42;;
39324;SDS011;25037;49.488;9.900;2024-02-21T11:30:12;8.82;;;1.40;;
39324;SDS011;25037;49.488;9.900;2024-02-21T11:32:40;10.10;;;2.70;;
39324;SDS011;25037;49.488;9.900;2024-02-21T11:35:07;8.98;;;1.40;;
39324;SDS011;25037;49.488;9.900;2024-02-21T11:37:35;6.28;;;1.55;;
39324;SDS011;25037;49.488;9.900;2024-02-21T11:40:06;5.53;;;1.55;;
39324;SDS011;25037;49.488;9.900;2024-02-21T11:42:37;9.52;;;1.73;;
39324;SDS011;25037;49.488;9.900;2024-02-21T11:47:31;10.18;;;1.48;;
39324;SDS011;25037;49.488;9.900;2024-02-21T11:49:57;7.40;;;1.25;;
39324;SDS011;25037;49.488;9.900;2024-02-21T11:52:25;5.53;;;1.70;;
39324;SDS011;25037;49.488;9.900;2024-02-21T11:54:54;12.25;;;1.92;;
39324;SDS011;25037;49.488;9.900;2024-02-21T11:57:22;7.68;;;1.20;;
39324;SDS011;25037;49.488;9.900;2024-02-21T11:59:49;6.63;;;1.13;;
39324;SDS011;25037;49.488;9.900;2024-02-21T12:02:22;5.35;;;1.10;;
39324;SDS011;25037;49.488;9.900;2024-02-21T12:07:16;7.80;;;1.48;;
39324;SDS011;25037;49.488;9.900;2024-02-21T12:09:44;5.47;;;1.10;;
39324;SDS011;25037;49.488;9.900;2024-02-21T12:12:10;7.65;;;1.70;;
39324;SDS011;25037;49.488;9.900;2024-02-21T12:14:37;8.60;;;1.63;;
39324;SDS011;25037;49.488;9.900;2024-02-21T12:17:04;5.63;;;1.15;;
39324;SDS011;25037;49.488;9.900;2024-02-21T12:21:58;4.65;;;1.40;;
39324;SDS011;25037;49.488;9.900;2024-02-21T12:24:26;5.78;;;1.05;;
39324;SDS011;25037;49.488;9.900;2024-02-21T12:26:55;6.70;;;1.45;;
39324;SDS011;25037;49.488;9.900;2024-02-21T12:29:23;5.93;;;1.17;;
39324;SDS011;25037;49.488;9.900;2024-02-21T12:31:55;7.18;;;1.35;;
39324;SDS011;25037;49.488;9.900;2024-02-21T12:34:23;5.47;;;1.23;;
39324;SDS011;25037;49.488;9.900;2024-02-21T12:37:04;5.70;;;1.10;;
39324;SDS011;25037;49.488;9.900;2024-02-21T12:39:30;6.70;;;1.73;;
39324;SDS011;25037;49.488;9.900;2024-02-21T12:41:58;7.57;;;1.20;;
39324;SDS011;25037;49.488;9.900;2024-02-21T12:46:52;6.13;;;1.40;;
39324;SDS011;25037;49.488;9.900;2024-02-21T12:49:21;5.93;;;1.23;;
39324;SDS011;25037;49.488;9.900;2024-02-21T12:51:48;6.18;;;1.25;;
39324;SDS011;25037;49.488;9.900;2024-02-21T12:56:41;8.00;;;1.50;;
39324;SDS011;25037;49.488;9.900;2024-02-21T12:59:08;5.25;;;1.10;;
39324;SDS011;25037;49.488;9.900;2024-02-21T13:01:37;4.28;;;1.30;;
39324;SDS011;25037;49.488;9.900;2024-02-21T13:04:05;9.20;;;1.35;;
39324;SDS011;25037;49.488;9.900;2024-02-21T13:06:32;8.32;;;1.55;;
39324;SDS011;25037;49.488;9.900;2024-02-21T13:08:59;4.60;;;1.02;;
39324;SDS011;25037;49.488;9.900;2024-02-21T13:11:29;6.18;;;1.35;;
39324;SDS011;25037;49.488;9.900;2024-02-21T13:13:58;6.10;;;1.60;;
39324;SDS011;25037;49.488;9.900;2024-02-21T13:16:25;4.68;;;1.15;;
39324;SDS011;25037;49.488;9.900;2024-02-21T13:18:53;6.57;;;1.20;;
39324;SDS011;25037;49.488;9.900;2024-02-21T13:21:20;7.40;;;1.70;;
39324;SDS011;25037;49.488;9.900;2024-02-21T13:23:47;8.23;;;1.50;;
39324;SDS011;25037;49.488;9.900;2024-02-21T13:28:41;3.97;;;1.30;;
39324;SDS011;25037;49.488;9.900;2024-02-21T13:31:10;5.97;;;1.40;;
39324;SDS011;25037;49.488;9.900;2024-02-21T13:33:37;5.47;;;1.40;;
39324;SDS011;25037;49.488;9.900;2024-02-21T13:36:04;6.03;;;1.40;;
39324;SDS011;25037;49.488;9.900;2024-02-21T13:38:31;3.78;;;1.08;;
39324;SDS011;25037;49.488;9.900;2024-02-21T13:40:58;8.65;;;1.35;;
39324;SDS011;25037;49.488;9.900;2024-02-21T13:43:27;7.60;;;1.65;;
39324;SDS011;25037;49.488;9.900;2024-02-21T13:45:57;6.70;;;1.60;;
39324;SDS011;25037;49.488;9.900;2024-02-21T13:48:25;5.70;;;1.73;;
39324;SDS011;25037;49.488;9.900;2024-02-21T13:50:53;4.70;;;1.20;;
39324;SDS011;25037;49.488;9.900;2024-02-21T13:55:47;6.65;;;1.40;;
39324;SDS011;25037;49.488;9.900;2024-02-21T13:58:15;9.70;;;1.38;;
39324;SDS011;25037;49.488;9.900;2024-02-21T14:00:42;3.80;;;0.95;;
39324;SDS011;25037;49.488;9.900;2024-02-21T14:03:08;7.43;;;1.30;;
39324;SDS011;25037;49.488;9.900;2024-02-21T14:05:36;4.40;;;1.17;;
39324;SDS011;25037;49.488;9.900;2024-02-21T14:08:07;5.03;;;1.17;;
39324;SDS011;25037;49.488;9.900;2024-02-21T14:10:34;4.28;;;1.20;;
39324;SDS011;25037;49.488;9.900;2024-02-21T14:13:00;5.68;;;1.30;;
39324;SDS011;25037;49.488;9.900;2024-02-21T14:15:27;7.53;;;1.55;;
39324;SDS011;25037;49.488;9.900;2024-02-21T14:20:22;7.03;;;1.50;;
39324;SDS011;25037;49.488;9.900;2024-02-21T14:22:49;6.50;;;1.33;;
39324;SDS011;25037;49.488;9.900;2024-02-21T14:25:16;5.90;;;1.13;;
39324;SDS011;25037;49.488;9.900;2024-02-21T14:30:10;4.50;;;1.17;;
39324;SDS011;25037;49.488;9.900;2024-02-21T14:32:37;5.30;;;1.17;;
39324;SDS011;25037;49.488;9.900;2024-02-21T14:35:06;4.22;;;1.10;;
39324;SDS011;25037;49.488;9.900;2024-02-21T14:37:33;6.75;;;1.25;;
39324;SDS011;25037;49.488;9.900;2024-02-21T14:42:27;5.43;;;1.50;;
39324;SDS011;25037;49.488;9.900;2024-02-21T14:44:53;6.25;;;1.08;;
39324;SDS011;25037;49.488;9.900;2024-02-21T14:47:30;5.25;;;1.13;;
39324;SDS011;25037;49.488;9.900;2024-02-21T14:49:57;6.18;;;1.10;;
39324;SDS011;25037;49.488;9.900;2024-02-21T14:54:51;7.25;;;1.25;;
39324;SDS011;25037;49.488;9.900;2024-02-21T14:59:46;5.38;;;1.13;;
39324;SDS011;25037;49.488;9.900;2024-02-21T15:02:15;7.28;;;1.20;;
39324;SDS011;25037;49.488;9.900;2024-02-21T15:04:42;5.93;;;1.30;;
39324;SDS011;25037;49.488;9.900;2024-02-21T15:07:08;5.32;;;1.20;;
39324;SDS011;25037;49.488;9.900;2024-02-21T15:09:35;6.10;;;1.40;;
39324;SDS011;25037;49.488;9.900;2024-02-21T15:12:02;6.80;;;1.23;;
39324;SDS011;25037;49.488;9.900;2024-02-21T15:14:28;4.25;;;1.30;;
39324;SDS011;25037;49.488;9.900;2024-02-21T15:16:55;4.15;;;1.20;;
39324;SDS011;25037;49.488;9.900;2024-02-21T15:19:22;5.97;;;1.33;;
39324;SDS011;25037;49.488;9.900;2024-02-21T15:21:49;7.68;;;1.35;;
39324;SDS011;25037;49.488;9.900;2024-02-21T15:24:16;4.00;;;1.13;;
39324;SDS011;25037;49.488;9.900;2024-02-21T15:29:09;6.07;;;1.00;;
39324;SDS011;25037;49.488;9.900;2024-02-21T15:31:36;7.47;;;1.42;;
39324;SDS011;25037;49.488;9.900;2024-02-21T15:34:04;4.07;;;1.10;;
39324;SDS011;25037;49.488;9.900;2024-02-21T15:36:30;6.82;;;1.13;;
39324;SDS011;25037;49.488;9.900;2024-02-21T15:41:25;4.13;;;1.15;;
39324;SDS011;25037;49.488;9.900;2024-02-21T15:43:52;3.83;;;1.05;;
39324;SDS011;25037;49.488;9.900;2024-02-21T15:46:19;4.18;;;1.20;;
39324;SDS011;25037;49.488;9.900;2024-02-21T15:48:46;5.88;;;1.20;;
39324;SDS011;25037;49.488;9.900;2024-02-21T15:51:15;6.00;;;1.27;;
39324;SDS011;25037;49.488;9.900;2024-02-21T15:56:11;5.65;;;1.10;;